createdAt,value
2019-05-26T00:00:33.488Z,10.86
2019-05-26T00:01:33.377Z,10.81
2019-05-26T00:02:33.302Z,10.87
2019-05-26T00:03:33.192Z,10.88
2019-05-26T00:04:33.091Z,10.81
2019-05-26T00:05:33.014Z,10.87
2019-05-26T00:06:32.900Z,10.78
2019-05-26T00:07:32.804Z,10.70
2019-05-26T00:08:32.710Z,10.73
2019-05-26T00:09:32.616Z,10.72
2019-05-26T00:10:32.531Z,10.73
2019-05-26T00:11:32.424Z,10.75
2019-05-26T00:12:32.329Z,10.78
2019-05-26T00:13:32.239Z,10.81
2019-05-26T00:14:32.137Z,10.72
2019-05-26T00:15:32.056Z,10.76
2019-05-26T00:16:31.950Z,10.76
2019-05-26T00:17:31.853Z,10.81
2019-05-26T00:18:33.425Z,10.73
2019-05-26T00:19:31.663Z,10.84
2019-05-26T00:20:31.581Z,10.76
2019-05-26T00:21:31.473Z,10.73
2019-05-26T00:22:31.375Z,10.66
2019-05-26T00:23:31.279Z,10.66
2019-05-26T00:24:31.184Z,10.62
2019-05-26T00:25:31.107Z,10.65
2019-05-26T00:26:30.996Z,10.66
2019-05-26T00:27:30.901Z,10.66
2019-05-26T00:28:30.804Z,10.63
2019-05-26T00:29:30.752Z,10.66
2019-05-26T00:30:30.626Z,10.66
2019-05-26T00:31:30.517Z,10.58
2019-05-26T00:32:30.433Z,10.63
2019-05-26T00:33:30.336Z,10.63
2019-05-26T00:34:30.232Z,10.63
2019-05-26T00:35:30.152Z,10.58
2019-05-26T00:36:30.045Z,10.52
2019-05-26T00:37:45.662Z,10.54
2019-05-26T00:38:29.850Z,10.51
2019-05-26T00:39:29.757Z,10.43
2019-05-26T00:40:29.676Z,10.46
2019-05-26T00:41:29.568Z,10.43
2019-05-26T00:42:29.470Z,10.54
2019-05-26T00:43:29.373Z,10.43
2019-05-26T00:44:29.280Z,10.36
2019-05-26T00:45:29.197Z,10.29
2019-05-26T00:46:29.085Z,10.36
2019-05-26T00:47:28.990Z,10.32
2019-05-26T00:48:28.894Z,10.34
2019-05-26T00:49:28.799Z,10.26
2019-05-26T00:50:28.718Z,10.36
2019-05-26T00:51:28.607Z,10.28
2019-05-26T00:52:28.512Z,10.26
2019-05-26T00:53:28.423Z,10.38
2019-05-26T00:54:28.322Z,10.42
2019-05-26T00:55:28.238Z,10.36
2019-05-26T00:56:28.128Z,10.29
2019-05-26T00:57:28.035Z,10.24
2019-05-26T00:58:27.937Z,10.31
2019-05-26T00:59:27.857Z,10.24
2019-05-26T01:00:27.747Z,10.16
2019-05-26T01:01:27.667Z,10.16
2019-05-26T01:02:27.557Z,10.13
2019-05-26T01:03:27.459Z,10.04
2019-05-26T01:04:27.420Z,10.09
2019-05-26T01:05:27.267Z,9.99
2019-05-26T01:06:27.184Z,10.06
2019-05-26T01:07:27.075Z,10.06
2019-05-26T01:08:26.980Z,10.06
2019-05-26T01:09:26.883Z,9.95
2019-05-26T01:10:26.813Z,10.01
2019-05-26T01:11:26.705Z,10.01
2019-05-26T01:12:26.597Z,9.96
2019-05-26T01:13:26.501Z,9.98
2019-05-26T01:14:26.405Z,9.88
2019-05-26T01:15:26.309Z,9.83
2019-05-26T01:16:26.227Z,9.89
2019-05-26T01:17:26.122Z,9.75
2019-05-26T01:18:26.022Z,9.77
2019-05-26T01:19:25.926Z,9.83
2019-05-26T01:20:25.831Z,9.83
2019-05-26T01:21:25.772Z,9.85
2019-05-26T01:22:25.742Z,9.83
2019-05-26T01:23:25.544Z,9.83
2019-05-26T01:24:25.496Z,9.75
2019-05-26T01:25:25.351Z,9.77
2019-05-26T01:26:25.267Z,9.75
2019-05-26T01:27:25.159Z,9.73
2019-05-26T01:28:25.062Z,9.75
2019-05-26T01:29:25.079Z,9.75
2019-05-26T01:30:24.873Z,9.65
2019-05-26T01:31:24.789Z,9.59
2019-05-26T01:32:24.679Z,9.60
2019-05-26T01:33:24.584Z,9.55
2019-05-26T01:34:24.488Z,9.53
2019-05-26T01:35:24.394Z,9.59
2019-05-26T01:36:24.411Z,9.58
2019-05-26T01:37:24.200Z,9.50
2019-05-26T01:38:24.663Z,9.49
2019-05-26T01:39:24.008Z,9.48
2019-05-26T01:40:23.909Z,9.41
2019-05-26T01:41:23.826Z,9.48
2019-05-26T01:42:23.714Z,9.50
2019-05-26T01:43:23.723Z,9.41
2019-05-26T01:44:23.522Z,9.41
2019-05-26T01:45:23.426Z,9.44
2019-05-26T01:46:23.344Z,9.58
2019-05-26T01:47:23.236Z,9.44
2019-05-26T01:48:23.139Z,9.42
2019-05-26T01:49:23.047Z,9.44
2019-05-26T01:50:23.046Z,9.42
2019-05-26T01:51:22.868Z,9.41
2019-05-26T01:52:22.756Z,9.50
2019-05-26T01:53:22.660Z,9.49
2019-05-26T01:54:22.561Z,9.40
2019-05-26T01:55:22.465Z,9.37
2019-05-26T01:56:22.370Z,9.32
2019-05-26T01:57:22.410Z,9.20
2019-05-26T01:58:22.175Z,9.16
2019-05-26T01:59:22.080Z,9.15
2019-05-26T02:00:21.983Z,9.12
2019-05-26T02:01:21.888Z,9.06
2019-05-26T02:02:21.807Z,9.01
2019-05-26T02:03:21.693Z,8.98
2019-05-26T02:04:21.698Z,9.01
2019-05-26T02:05:21.504Z,9.08
2019-05-26T02:06:21.407Z,9.06
2019-05-26T02:07:21.325Z,9.15
2019-05-26T02:08:21.217Z,9.03
2019-05-26T02:09:21.115Z,9.13
2019-05-26T02:10:21.018Z,9.15
2019-05-26T02:11:21.033Z,9.22
2019-05-26T02:12:20.842Z,9.13
2019-05-26T02:13:20.733Z,9.22
2019-05-26T02:14:20.633Z,9.26
2019-05-26T02:15:20.542Z,9.31
2019-05-26T02:16:20.440Z,9.27
2019-05-26T02:17:20.375Z,9.34
2019-05-26T02:18:20.350Z,9.35
2019-05-26T02:19:20.150Z,9.34
2019-05-26T02:20:20.054Z,9.40
2019-05-26T02:21:19.958Z,9.30
2019-05-26T02:22:19.875Z,9.44
2019-05-26T02:23:19.765Z,9.44
2019-05-26T02:24:19.671Z,9.38
2019-05-26T02:25:19.679Z,9.52
2019-05-26T02:26:19.476Z,9.52
2019-05-26T02:27:19.393Z,9.56
2019-05-26T02:28:19.289Z,9.58
2019-05-26T02:29:19.190Z,9.58
2019-05-26T02:30:19.097Z,9.63
2019-05-26T02:31:18.994Z,9.53
2019-05-26T02:32:19.025Z,9.49
2019-05-26T02:33:18.803Z,9.48
2019-05-26T02:34:18.709Z,9.52
2019-05-26T02:35:18.626Z,9.48
2019-05-26T02:36:18.514Z,9.48
2019-05-26T02:37:18.433Z,9.53
2019-05-26T02:38:18.455Z,9.53
2019-05-26T02:39:18.245Z,9.45
2019-05-26T02:40:18.130Z,9.53
2019-05-26T02:41:18.052Z,9.58
2019-05-26T02:42:17.953Z,9.55
2019-05-26T02:43:17.841Z,9.58
2019-05-26T02:44:17.744Z,9.58
2019-05-26T02:45:17.666Z,9.56
2019-05-26T02:46:17.654Z,9.60
2019-05-26T02:47:17.458Z,9.53
2019-05-26T02:48:17.374Z,9.44
2019-05-26T02:49:17.265Z,9.49
2019-05-26T02:50:17.167Z,9.62
2019-05-26T02:51:17.081Z,9.65
2019-05-26T02:52:16.979Z,9.59
2019-05-26T02:53:16.897Z,9.63
2019-05-26T02:54:16.806Z,9.60
2019-05-26T02:55:16.688Z,9.68
2019-05-26T02:56:16.595Z,9.75
2019-05-26T02:57:16.495Z,9.73
2019-05-26T02:58:16.422Z,9.73
2019-05-26T02:59:16.301Z,9.74
2019-05-26T03:00:16.208Z,9.63
2019-05-26T03:01:16.111Z,9.74
2019-05-26T03:02:16.017Z,9.67
2019-05-26T03:03:15.944Z,9.63
2019-05-26T03:04:15.822Z,9.68
2019-05-26T03:05:15.726Z,9.70
2019-05-26T03:06:15.627Z,9.68
2019-05-26T03:07:15.536Z,9.68
2019-05-26T03:08:15.453Z,9.58
2019-05-26T03:09:22.774Z,9.68
2019-05-26T03:10:15.273Z,9.60
2019-05-26T03:11:15.149Z,9.70
2019-05-26T03:12:15.052Z,9.70
2019-05-26T03:13:14.970Z,9.59
2019-05-26T03:14:14.860Z,9.59
2019-05-26T03:15:14.765Z,9.59
2019-05-26T03:16:14.669Z,9.60
2019-05-26T03:17:14.572Z,9.58
2019-05-26T03:18:14.508Z,9.55
2019-05-26T03:19:14.379Z,9.65
2019-05-26T03:20:14.300Z,9.65
2019-05-26T03:21:14.188Z,9.62
2019-05-26T03:22:14.091Z,9.58
2019-05-26T03:23:14.021Z,9.56
2019-05-26T03:24:13.900Z,9.58
2019-05-26T03:25:13.804Z,9.62
2019-05-26T03:26:13.710Z,9.60
2019-05-26T03:27:13.612Z,9.63
2019-05-26T03:28:13.528Z,9.67
2019-05-26T03:29:13.530Z,9.58
2019-05-26T03:30:13.345Z,9.58
2019-05-26T03:31:13.265Z,9.52
2019-05-26T03:32:13.132Z,9.52
2019-05-26T03:33:13.049Z,9.59
2019-05-26T03:34:12.947Z,9.56
2019-05-26T03:35:12.865Z,9.55
2019-05-26T03:36:12.762Z,9.55
2019-05-26T03:37:12.653Z,9.50
2019-05-26T03:38:12.567Z,9.53
2019-05-26T03:39:12.462Z,9.50
2019-05-26T03:40:12.363Z,9.50
2019-05-26T03:41:12.267Z,9.48
2019-05-26T03:42:12.168Z,9.58
2019-05-26T03:43:12.089Z,9.52
2019-05-26T03:44:11.976Z,9.58
2019-05-26T03:45:11.879Z,9.53
2019-05-26T03:46:11.790Z,9.53
2019-05-26T03:47:16.429Z,9.48
2019-05-26T03:48:11.613Z,9.44
2019-05-26T03:49:11.526Z,9.53
2019-05-26T03:50:11.399Z,9.49
2019-05-26T03:51:11.305Z,9.53
2019-05-26T03:52:11.217Z,9.58
2019-05-26T03:53:11.114Z,9.56
2019-05-26T03:54:11.031Z,9.58
2019-05-26T03:55:10.919Z,9.56
2019-05-26T03:56:10.827Z,9.62
2019-05-26T03:57:10.731Z,9.58
2019-05-26T03:58:10.633Z,9.58
2019-05-26T03:59:10.548Z,9.52
2019-05-26T04:00:10.441Z,9.41
2019-05-26T04:01:10.350Z,9.48
2019-05-26T04:02:10.256Z,9.41
2019-05-26T04:03:10.152Z,9.44
2019-05-26T04:04:10.072Z,9.40
2019-05-26T04:05:09.960Z,9.37
2019-05-26T04:06:09.867Z,9.38
2019-05-26T04:07:09.768Z,9.34
2019-05-26T04:08:09.669Z,9.37
2019-05-26T04:09:09.718Z,9.37
2019-05-26T04:10:09.479Z,9.48
2019-05-26T04:11:09.428Z,9.41
2019-05-26T04:12:09.289Z,9.42
2019-05-26T04:13:09.194Z,9.49
2019-05-26T04:14:09.110Z,9.53
2019-05-26T04:15:08.999Z,9.63
2019-05-26T04:16:09.014Z,9.67
2019-05-26T04:17:08.809Z,9.59
2019-05-26T04:18:08.711Z,9.67
2019-05-26T04:19:08.631Z,9.67
2019-05-26T04:20:08.519Z,9.58
2019-05-26T04:21:08.426Z,9.68
2019-05-26T04:22:08.335Z,9.60
2019-05-26T04:23:08.349Z,9.53
2019-05-26T04:24:08.151Z,9.50
2019-05-26T04:25:08.041Z,9.58
2019-05-26T04:26:07.949Z,9.58
2019-05-26T04:27:07.858Z,9.59
2019-05-26T04:28:07.753Z,9.53
2019-05-26T04:29:07.659Z,9.35
2019-05-26T04:30:07.681Z,9.27
2019-05-26T04:31:07.468Z,9.31
2019-05-26T04:32:07.373Z,9.32
2019-05-26T04:33:07.274Z,9.34
2019-05-26T04:34:07.195Z,9.48
2019-05-26T04:35:07.104Z,9.44
2019-05-26T04:36:06.987Z,9.63
2019-05-26T04:37:06.996Z,9.67
2019-05-26T04:38:06.798Z,9.68
2019-05-26T04:39:06.699Z,9.73
2019-05-26T04:40:25.147Z,9.74
2019-05-26T04:41:06.508Z,9.83
2019-05-26T04:42:06.417Z,9.92
2019-05-26T04:43:06.314Z,9.91
2019-05-26T04:44:06.328Z,9.91
2019-05-26T04:45:06.240Z,9.89
2019-05-26T04:46:06.031Z,9.98
2019-05-26T04:47:05.931Z,9.99
2019-05-26T04:48:05.838Z,10.09
2019-05-26T04:49:05.741Z,10.09
2019-05-26T04:50:05.664Z,10.10
2019-05-26T04:51:05.658Z,10.11
2019-05-26T04:52:05.459Z,10.17
2019-05-26T04:53:07.207Z,10.18
2019-05-26T04:54:05.269Z,10.28
2019-05-26T04:55:05.181Z,10.29
2019-05-26T04:56:05.071Z,10.26
2019-05-26T04:57:04.983Z,10.31
2019-05-26T04:58:05.009Z,10.28
2019-05-26T04:59:04.786Z,10.36
2019-05-26T05:00:04.723Z,10.39
2019-05-26T05:01:04.595Z,10.51
2019-05-26T05:02:04.506Z,10.52
2019-05-26T05:03:04.407Z,10.60
2019-05-26T05:04:04.313Z,10.60
2019-05-26T05:05:04.338Z,10.76
2019-05-26T05:06:04.121Z,10.68
2019-05-26T05:07:04.026Z,10.60
2019-05-26T05:08:03.931Z,10.68
2019-05-26T05:09:03.835Z,10.62
2019-05-26T05:10:03.753Z,10.76
2019-05-26T05:11:03.643Z,10.70
2019-05-26T05:12:03.656Z,10.72
2019-05-26T05:13:03.474Z,10.70
2019-05-26T05:14:03.360Z,10.73
2019-05-26T05:15:03.282Z,10.80
2019-05-26T05:16:03.181Z,10.83
2019-05-26T05:17:03.088Z,10.93
2019-05-26T05:18:02.981Z,10.95
2019-05-26T05:19:02.992Z,10.95
2019-05-26T05:20:02.822Z,10.94
2019-05-26T05:21:02.710Z,11.09
2019-05-26T05:22:02.607Z,11.06
2019-05-26T05:23:02.508Z,11.08
2019-05-26T05:24:02.424Z,11.11
2019-05-26T05:25:02.319Z,11.19
2019-05-26T05:26:02.346Z,11.27
2019-05-26T05:27:02.126Z,11.35
2019-05-26T05:28:02.032Z,11.44
2019-05-26T05:29:01.937Z,11.44
2019-05-26T05:30:01.845Z,11.48
2019-05-26T05:31:01.761Z,11.62
2019-05-26T05:32:01.656Z,11.60
2019-05-26T05:33:01.668Z,11.66
2019-05-26T05:34:01.468Z,11.67
2019-05-26T05:35:01.371Z,11.69
2019-05-26T05:36:01.288Z,11.64
2019-05-26T05:37:01.182Z,11.75
2019-05-26T05:38:01.087Z,11.77
2019-05-26T05:39:00.992Z,11.74
2019-05-26T05:40:00.897Z,11.84
2019-05-26T05:41:00.821Z,11.88
2019-05-26T05:42:00.708Z,11.93
2019-05-26T05:43:00.618Z,12.03
2019-05-26T05:44:00.522Z,12.15
2019-05-26T05:45:00.430Z,12.15
2019-05-26T05:46:00.344Z,12.16
2019-05-26T05:47:00.239Z,12.29
2019-05-26T05:48:00.143Z,12.40
2019-05-26T05:49:00.050Z,12.40
2019-05-26T05:49:59.957Z,12.44
2019-05-26T05:50:59.936Z,12.56
2019-05-26T05:51:59.765Z,12.54
2019-05-26T05:52:59.675Z,12.59
2019-05-26T05:53:59.577Z,12.73
2019-05-26T05:54:59.483Z,12.77
2019-05-26T05:55:59.460Z,12.94
2019-05-26T05:56:59.295Z,12.89
2019-05-26T05:57:59.203Z,12.91
2019-05-26T05:58:59.108Z,12.91
2019-05-26T05:59:59.012Z,12.88
2019-05-26T06:00:58.934Z,13.04
2019-05-26T06:01:58.827Z,13.13
2019-05-26T06:02:58.733Z,13.27
2019-05-26T06:03:58.639Z,13.32
2019-05-26T06:04:58.546Z,13.43
2019-05-26T06:05:58.471Z,13.47
2019-05-26T06:06:58.380Z,13.57
2019-05-26T06:07:58.264Z,13.72
2019-05-26T06:08:58.169Z,13.86
2019-05-26T06:09:58.076Z,14.02
2019-05-26T06:10:58.000Z,14.02
2019-05-26T06:11:57.889Z,14.05
2019-05-26T06:12:57.796Z,14.23
2019-05-26T06:13:57.703Z,14.23
2019-05-26T06:14:57.652Z,14.45
2019-05-26T06:15:57.530Z,14.36
2019-05-26T06:16:57.423Z,14.44
2019-05-26T06:17:57.331Z,14.52
2019-05-26T06:18:57.237Z,14.52
2019-05-26T06:19:57.145Z,14.56
2019-05-26T06:20:57.065Z,14.63
2019-05-26T06:21:56.963Z,14.61
2019-05-26T06:22:56.865Z,14.72
2019-05-26T06:23:56.772Z,14.67
2019-05-26T06:24:56.679Z,14.75
2019-05-26T06:25:56.603Z,14.75
2019-05-26T06:26:56.496Z,14.87
2019-05-26T06:27:56.474Z,14.79
2019-05-26T06:28:56.310Z,14.87
2019-05-26T06:29:59.159Z,14.95
2019-05-26T06:30:56.125Z,14.94
2019-05-26T06:31:56.542Z,14.94
2019-05-26T06:32:55.943Z,15.12
2019-05-26T06:33:55.849Z,15.12
2019-05-26T06:34:55.754Z,15.22
2019-05-26T06:35:55.680Z,15.22
2019-05-26T06:36:55.571Z,15.40
2019-05-26T06:37:55.487Z,15.52
2019-05-26T06:38:55.383Z,15.70
2019-05-26T06:39:55.291Z,15.89
2019-05-26T06:40:55.205Z,16.17
2019-05-26T06:41:55.121Z,16.48
2019-05-26T06:42:55.117Z,16.60
2019-05-26T06:43:54.925Z,16.63
2019-05-26T06:44:54.839Z,16.91
2019-05-26T06:45:54.785Z,16.92
2019-05-26T06:46:54.663Z,17.10
2019-05-26T06:47:54.560Z,17.17
2019-05-26T06:48:54.467Z,17.51
2019-05-26T06:49:54.377Z,17.62
2019-05-26T06:50:54.285Z,17.73
2019-05-26T06:51:54.207Z,17.96
2019-05-26T06:52:54.105Z,18.25
2019-05-26T06:53:54.017Z,18.46
2019-05-26T06:54:53.925Z,18.50
2019-05-26T06:55:53.845Z,18.72
2019-05-26T06:56:53.870Z,18.84
2019-05-26T06:57:53.656Z,19.01
2019-05-26T06:58:53.583Z,19.21
2019-05-26T06:59:53.476Z,19.30
2019-05-26T07:00:53.450Z,19.20
2019-05-26T07:01:53.315Z,19.20
2019-05-26T07:02:53.214Z,19.07
2019-05-26T07:03:53.230Z,19.13
2019-05-26T07:04:53.037Z,19.20
2019-05-26T07:05:52.951Z,19.21
2019-05-26T07:06:52.874Z,19.28
2019-05-26T07:07:52.771Z,19.46
2019-05-26T07:08:52.685Z,19.49
2019-05-26T07:09:52.598Z,19.62
2019-05-26T07:10:52.623Z,19.94
2019-05-26T07:11:59.634Z,19.87
2019-05-26T07:12:52.336Z,20.04
2019-05-26T07:13:52.250Z,20.48
2019-05-26T07:14:52.162Z,20.40
2019-05-26T07:15:52.077Z,20.56
2019-05-26T07:16:52.006Z,20.42
2019-05-26T07:17:52.009Z,20.42
2019-05-26T07:18:51.827Z,20.60
2019-05-26T07:19:51.731Z,20.75
2019-05-26T07:20:51.646Z,20.94
2019-05-26T07:21:51.573Z,20.71
2019-05-26T07:22:51.480Z,20.82
2019-05-26T07:23:51.388Z,20.87
2019-05-26T07:24:51.408Z,20.69
2019-05-26T07:25:51.217Z,20.68
2019-05-26T07:26:51.145Z,20.48
2019-05-26T07:27:51.050Z,20.63
2019-05-26T07:28:51.024Z,20.75
2019-05-26T07:29:50.878Z,20.78
2019-05-26T07:30:50.809Z,20.97
2019-05-26T07:31:50.833Z,20.91
2019-05-26T07:32:50.622Z,21.12
2019-05-26T07:33:50.538Z,21.19
2019-05-26T07:34:50.484Z,21.28
2019-05-26T07:35:50.369Z,21.58
2019-05-26T07:36:50.287Z,21.33
2019-05-26T07:37:50.213Z,21.48
2019-05-26T07:38:50.219Z,21.46
2019-05-26T07:39:50.031Z,21.51
2019-05-26T07:40:49.945Z,21.33
2019-05-26T07:42:08.202Z,21.37
2019-05-26T07:42:49.811Z,21.26
2019-05-26T07:43:49.693Z,21.31
2019-05-26T07:44:49.609Z,21.48
2019-05-26T07:45:49.626Z,21.70
2019-05-26T07:46:49.438Z,22.08
2019-05-26T07:47:49.374Z,22.31
2019-05-26T07:48:49.273Z,22.21
2019-05-26T07:49:49.184Z,22.08
2019-05-26T07:50:49.100Z,22.14
2019-05-26T07:51:49.017Z,21.67
2019-05-26T07:52:49.110Z,21.91
2019-05-26T07:53:48.850Z,22.02
2019-05-26T07:54:48.764Z,21.86
2019-05-26T07:55:48.681Z,21.86
2019-05-26T07:56:48.599Z,22.14
2019-05-26T07:57:48.527Z,22.38
2019-05-26T07:58:48.430Z,22.23
2019-05-26T07:59:48.447Z,22.30
2019-05-26T08:00:48.263Z,22.45
2019-05-26T08:01:48.179Z,22.44
2019-05-26T08:02:48.115Z,22.69
2019-05-26T08:03:48.014Z,22.69
2019-05-26T08:04:47.933Z,22.60
2019-05-26T08:05:47.846Z,22.49
2019-05-26T08:06:47.763Z,22.85
2019-05-26T08:07:47.693Z,23.18
2019-05-26T08:08:47.596Z,22.96
2019-05-26T08:09:47.514Z,22.85
2019-05-26T08:10:47.428Z,22.14
2019-05-26T08:11:47.348Z,22.05
2019-05-26T08:12:47.278Z,21.27
2019-05-26T08:13:47.180Z,21.59
2019-05-26T08:14:47.100Z,21.82
2019-05-26T08:15:47.025Z,21.64
2019-05-26T08:16:46.929Z,22.06
2019-05-26T08:17:46.864Z,22.31
2019-05-26T08:18:46.764Z,22.35
2019-05-26T08:19:46.686Z,22.24
2019-05-26T08:20:46.597Z,21.90
2019-05-26T08:21:46.513Z,22.06
2019-05-26T08:22:46.444Z,21.77
2019-05-26T08:23:46.348Z,22.56
2019-05-26T08:24:46.265Z,22.89
2019-05-26T08:25:46.180Z,22.93
2019-05-26T08:26:46.120Z,23.12
2019-05-26T08:27:46.015Z,23.01
2019-05-26T08:28:45.969Z,23.15
2019-05-26T08:29:45.847Z,23.32
2019-05-26T08:30:45.767Z,23.56
2019-05-26T08:31:45.684Z,23.54
2019-05-26T08:32:45.608Z,23.52
2019-05-26T08:33:45.531Z,23.59
2019-05-26T08:34:45.432Z,23.68
2019-05-26T08:35:45.350Z,23.45
2019-05-26T08:36:45.266Z,23.35
2019-05-26T08:37:45.182Z,23.50
2019-05-26T08:38:45.117Z,23.64
2019-05-26T08:39:48.306Z,23.59
2019-05-26T08:40:44.938Z,23.57
2019-05-26T08:41:44.851Z,23.67
2019-05-26T08:42:44.964Z,23.64
2019-05-26T08:43:44.703Z,23.94
2019-05-26T08:44:44.602Z,24.11
2019-05-26T08:45:44.521Z,23.72
2019-05-26T08:46:44.436Z,23.64
2019-05-26T08:47:44.356Z,23.42
2019-05-26T08:48:44.288Z,23.04
2019-05-26T08:49:44.191Z,23.00
2019-05-26T08:50:44.107Z,22.57
2019-05-26T08:51:44.023Z,22.93
2019-05-26T08:52:43.943Z,23.07
2019-05-26T08:53:43.875Z,23.60
2019-05-26T08:54:43.776Z,23.79
2019-05-26T08:55:43.695Z,23.77
2019-05-26T08:56:43.613Z,22.99
2019-05-26T08:57:43.528Z,22.72
2019-05-26T08:58:43.467Z,23.16
2019-05-26T08:59:43.371Z,23.49
2019-05-26T09:00:43.346Z,23.34
2019-05-26T09:01:43.200Z,23.19
2019-05-26T09:02:43.118Z,22.97
2019-05-26T09:03:43.047Z,22.81
2019-05-26T09:04:42.952Z,22.52
2019-05-26T09:05:42.870Z,22.23
2019-05-26T09:06:42.788Z,21.93
2019-05-26T09:07:42.708Z,22.04
2019-05-26T09:08:42.636Z,22.21
2019-05-26T09:09:42.539Z,21.73
2019-05-26T09:10:42.459Z,21.93
2019-05-26T09:11:42.376Z,22.15
2019-05-26T09:12:42.289Z,22.11
2019-05-26T09:13:42.219Z,22.66
2019-05-26T09:14:42.123Z,23.00
2019-05-26T09:15:42.045Z,22.66
2019-05-26T09:16:41.958Z,22.57
2019-05-26T09:17:41.875Z,22.78
2019-05-26T09:18:41.802Z,22.79
2019-05-26T09:19:41.707Z,23.15
2019-05-26T09:20:41.621Z,23.50
2019-05-26T09:21:41.562Z,23.84
2019-05-26T09:22:41.566Z,23.82
2019-05-26T09:23:41.387Z,23.67
2019-05-26T09:24:41.288Z,23.82
2019-05-26T09:25:41.206Z,23.93
2019-05-26T09:26:41.127Z,23.79
2019-05-26T09:27:41.040Z,23.54
2019-05-26T09:28:40.971Z,24.11
2019-05-26T09:29:40.871Z,24.00
2019-05-26T09:30:40.789Z,23.94
2019-05-26T09:31:40.711Z,23.79
2019-05-26T09:32:40.623Z,23.82
2019-05-26T09:33:40.554Z,23.63
2019-05-26T09:34:40.460Z,23.12
2019-05-26T09:35:40.377Z,23.21
2019-05-26T09:36:40.292Z,23.29
2019-05-26T09:37:40.208Z,23.57
2019-05-26T09:38:40.128Z,23.74
2019-05-26T09:39:40.058Z,22.79
2019-05-26T09:40:39.961Z,22.89
2019-05-26T09:41:39.878Z,23.47
2019-05-26T09:42:39.794Z,22.99
2019-05-26T09:43:39.817Z,22.74
2019-05-26T09:44:39.647Z,22.64
2019-05-26T09:45:39.548Z,22.79
2019-05-26T09:46:39.474Z,22.89
2019-05-26T09:47:39.381Z,22.88
2019-05-26T09:48:39.299Z,23.15
2019-05-26T09:49:39.239Z,23.42
2019-05-26T09:50:39.252Z,23.45
2019-05-26T09:51:39.049Z,23.74
2019-05-26T09:52:38.962Z,23.60
2019-05-26T09:53:38.885Z,23.92
2019-05-26T09:54:38.810Z,24.15
2019-05-26T09:55:38.716Z,23.63
2019-05-26T09:56:38.632Z,23.82
2019-05-26T09:57:38.546Z,23.42
2019-05-26T09:58:38.471Z,23.52
2019-05-26T09:59:38.398Z,23.19
2019-05-26T10:00:38.298Z,23.54
2019-05-26T10:01:38.215Z,23.00
2019-05-26T10:02:38.136Z,23.34
2019-05-26T10:03:38.055Z,23.57
2019-05-26T10:04:38.194Z,24.00
2019-05-26T10:05:37.882Z,24.48
2019-05-26T10:06:37.798Z,24.90
2019-05-26T10:07:37.715Z,25.24
2019-05-26T10:08:37.646Z,24.92
2019-05-26T10:09:37.563Z,24.84
2019-05-26T10:10:37.467Z,24.53
2019-05-26T10:11:37.385Z,24.19
2019-05-26T10:12:37.301Z,23.78
2019-05-26T10:13:37.220Z,23.68
2019-05-26T10:14:37.147Z,23.57
2019-05-26T10:15:37.053Z,24.04
2019-05-26T10:16:36.976Z,24.53
2019-05-26T10:17:36.901Z,24.64
2019-05-26T10:18:36.808Z,24.36
2019-05-26T10:19:36.750Z,24.39
2019-05-26T10:20:36.671Z,24.63
2019-05-26T10:21:36.559Z,24.66
2019-05-26T10:22:36.475Z,24.44
2019-05-26T10:23:36.392Z,24.94
2019-05-26T10:24:36.323Z,24.79
2019-05-26T10:25:36.344Z,24.84
2019-05-26T10:26:36.144Z,24.53
2019-05-26T10:27:36.062Z,24.36
2019-05-26T10:28:35.980Z,23.69
2019-05-26T10:29:35.914Z,23.12
2019-05-26T10:30:35.815Z,22.69
2019-05-26T10:31:35.734Z,22.48
2019-05-26T10:32:35.795Z,22.70
2019-05-26T10:33:35.571Z,23.07
2019-05-26T10:34:35.499Z,23.00
2019-05-26T10:35:35.405Z,22.67
2019-05-26T10:36:35.321Z,22.41
2019-05-26T10:37:35.253Z,22.42
2019-05-26T10:38:35.155Z,22.79
2019-05-26T10:39:35.194Z,22.33
2019-05-26T10:40:34.989Z,22.06
2019-05-26T10:41:34.907Z,21.79
2019-05-26T10:42:34.831Z,21.93
2019-05-26T10:43:46.915Z,22.36
2019-05-26T10:44:34.669Z,22.99
2019-05-26T10:45:34.603Z,23.45
2019-05-26T10:46:34.486Z,23.72
2019-05-26T10:47:34.401Z,23.97
2019-05-26T10:48:34.318Z,24.39
2019-05-26T10:49:34.248Z,24.84
2019-05-26T10:50:34.151Z,24.92
2019-05-26T10:51:34.068Z,25.02
2019-05-26T10:52:33.984Z,24.93
2019-05-26T10:53:33.899Z,24.83
2019-05-26T10:54:33.838Z,24.68
2019-05-26T10:55:33.738Z,25.09
2019-05-26T10:56:33.652Z,25.56
2019-05-26T10:57:33.567Z,25.34
2019-05-26T10:58:33.487Z,25.31
2019-05-26T10:59:33.420Z,25.49
2019-05-26T11:00:33.400Z,25.39
2019-05-26T11:01:33.237Z,25.24
2019-05-26T11:02:33.155Z,25.30
2019-05-26T11:03:33.072Z,25.26
2019-05-26T11:04:32.992Z,25.14
2019-05-26T11:05:32.922Z,24.75
2019-05-26T11:06:32.826Z,24.05
2019-05-26T11:07:32.753Z,23.63
2019-05-26T11:08:32.661Z,23.19
2019-05-26T11:09:32.579Z,23.26
2019-05-26T11:10:32.510Z,23.31
2019-05-26T11:11:32.413Z,23.57
2019-05-26T11:12:32.333Z,23.71
2019-05-26T11:13:32.267Z,23.72
2019-05-26T11:14:32.184Z,23.64
2019-05-26T11:15:32.101Z,24.06
2019-05-26T11:16:32.004Z,24.34
2019-05-26T11:17:31.915Z,24.51
2019-05-26T11:18:31.842Z,25.11
2019-05-26T11:19:31.754Z,25.22
2019-05-26T11:20:31.687Z,25.24
2019-05-26T11:21:31.607Z,25.24
2019-05-26T11:22:31.504Z,25.57
2019-05-26T11:23:31.459Z,25.53
2019-05-26T11:24:31.348Z,25.07
2019-05-26T11:25:31.275Z,25.14
2019-05-26T11:26:31.176Z,25.02
2019-05-26T11:27:31.093Z,25.49
2019-05-26T11:28:31.014Z,25.63
2019-05-26T11:29:30.930Z,25.46
2019-05-26T11:30:30.861Z,25.85
2019-05-26T11:31:30.766Z,26.24
2019-05-26T11:32:30.685Z,26.49
2019-05-26T11:33:30.602Z,26.46
2019-05-26T11:34:30.523Z,26.00
2019-05-26T11:35:30.453Z,25.67
2019-05-26T11:36:30.366Z,25.79
2019-05-26T11:37:30.277Z,25.85
2019-05-26T11:38:33.240Z,25.53
2019-05-26T11:39:30.117Z,25.66
2019-05-26T11:40:30.048Z,25.48
2019-05-26T11:41:29.955Z,25.35
2019-05-26T11:42:29.871Z,25.53
2019-05-26T11:43:29.788Z,25.31
2019-05-26T11:44:29.710Z,25.34
2019-05-26T11:45:29.641Z,25.49
2019-05-26T11:46:29.545Z,25.59
2019-05-26T11:47:29.468Z,24.92
2019-05-26T11:48:29.385Z,25.24
2019-05-26T11:49:29.303Z,25.09
2019-05-26T11:50:29.239Z,23.86
2019-05-26T11:51:29.145Z,24.09
2019-05-26T11:52:29.062Z,24.53
2019-05-26T11:53:28.977Z,24.70
2019-05-26T11:54:28.899Z,24.68
2019-05-26T11:55:28.831Z,24.74
2019-05-26T11:56:28.845Z,24.29
2019-05-26T11:57:28.653Z,23.82
2019-05-26T11:58:28.573Z,23.77
2019-05-26T11:59:28.493Z,23.62
2019-05-26T12:00:28.424Z,24.00
2019-05-26T12:01:28.333Z,23.39
2019-05-26T12:02:28.246Z,23.69
2019-05-26T12:03:28.165Z,24.16
2019-05-26T12:04:28.084Z,24.31
2019-05-26T12:05:28.004Z,24.64
2019-05-26T12:06:27.936Z,24.86
2019-05-26T12:07:27.837Z,25.14
2019-05-26T12:08:27.757Z,25.53
2019-05-26T12:09:27.672Z,25.59
2019-05-26T12:10:27.704Z,25.63
2019-05-26T12:11:27.522Z,25.54
2019-05-26T12:12:27.477Z,25.85
2019-05-26T12:13:27.346Z,25.76
2019-05-26T12:14:34.639Z,25.69
2019-05-26T12:15:27.188Z,25.01
2019-05-26T12:16:28.972Z,24.08
2019-05-26T12:17:27.126Z,23.93
2019-05-26T12:18:26.940Z,24.02
2019-05-26T12:19:26.857Z,23.67
2019-05-26T12:20:26.776Z,23.29
2019-05-26T12:21:26.705Z,23.01
2019-05-26T12:22:26.614Z,22.79
2019-05-26T12:23:26.532Z,22.69
2019-05-26T12:24:26.557Z,22.51
2019-05-26T12:25:26.367Z,22.51
2019-05-26T12:26:26.315Z,23.15
2019-05-26T12:27:26.198Z,23.62
2019-05-26T12:28:26.115Z,23.52
2019-05-26T12:29:26.031Z,23.38
2019-05-26T12:30:25.949Z,23.31
2019-05-26T12:31:25.986Z,23.12
2019-05-26T12:32:25.785Z,22.96
2019-05-26T12:33:25.699Z,22.60
2019-05-26T12:34:25.618Z,22.30
2019-05-26T12:35:25.533Z,22.11
2019-05-26T12:36:25.462Z,22.30
2019-05-26T12:37:25.378Z,22.08
2019-05-26T12:38:25.385Z,21.89
2019-05-26T12:39:25.197Z,21.75
2019-05-26T12:40:25.112Z,22.01
2019-05-26T12:41:25.040Z,22.21
2019-05-26T12:42:24.944Z,22.19
2019-05-26T12:43:24.863Z,22.46
2019-05-26T12:44:24.775Z,22.67
2019-05-26T12:45:24.795Z,23.11
2019-05-26T12:46:24.637Z,22.82
2019-05-26T12:47:24.526Z,22.66
2019-05-26T12:48:24.437Z,22.89
2019-05-26T12:49:27.594Z,23.07
2019-05-26T12:50:24.271Z,23.12
2019-05-26T12:51:24.196Z,23.35
2019-05-26T12:52:24.202Z,23.09
2019-05-26T12:53:24.013Z,22.85
2019-05-26T12:54:23.927Z,23.01
2019-05-26T12:55:23.841Z,23.00
2019-05-26T12:56:23.772Z,22.81
2019-05-26T12:57:23.674Z,22.76
2019-05-26T12:58:23.593Z,22.70